Hlavní strana
METAR-TAF:

METAR-TAF

Letiště :

Ghadames, Libye

zeměpisná šířka: 30-08N, zeměpisná délka: 009-30E, výška: 346 m

METAR: chybějící

Čas: 13:46 (11:46 UTC)

Předpověď počasí

Zpráva byla vytvořena před 18 hodinami a 46 minutami, v 17:00 UTC
Předpověď platná od 03 v 18 UTC do 04 v 03 UTC
vítr z různých směrů 2 kt
Viditelnost: 8000 m

TAF: HLTD 031700Z 0318/0403 VRB02KT 8000 NSC

Stav a předpovědi počasí z více než 4 000 letišť (zprávy METAR a TAF).

Červené a žluté tečky na mapě představují dostupné meteorologické stanice.

Když kurzor umístíte na tečku, zobrazí se název stanice.

Pak kliknutím zobrazíte stav a předpověď počasí.

Chcete-li změnit mapu, kliknutím na zelené tlačítko se znaménkem +mapu přiblížíte, kliknutím na zelené tlačítko se znaménkem – mapu oddálíte a kliknutím na zelené šipky přejdete na sousední mapy.


METAR-TAF: